sensor_id;sensor_type;location;lat;lon;timestamp;P1;durP1;ratioP1;P2;durP2;ratioP2
18405;SDS011;9329;48.720;9.588;2022-07-29T00:01:53;12.93;;;9.18;;
18405;SDS011;9329;48.720;9.588;2022-07-29T00:04:20;13.00;;;8.97;;
18405;SDS011;9329;48.720;9.588;2022-07-29T00:06:47;10.82;;;8.43;;
18405;SDS011;9329;48.720;9.588;2022-07-29T00:09:14;12.57;;;7.90;;
18405;SDS011;9329;48.720;9.588;2022-07-29T00:11:41;11.05;;;8.40;;
18405;SDS011;9329;48.720;9.588;2022-07-29T00:14:09;11.32;;;8.98;;
18405;SDS011;9329;48.720;9.588;2022-07-29T00:16:37;13.02;;;8.80;;
18405;SDS011;9329;48.720;9.588;2022-07-29T00:19:04;11.18;;;8.95;;
18405;SDS011;9329;48.720;9.588;2022-07-29T00:21:31;10.38;;;8.40;;
18405;SDS011;9329;48.720;9.588;2022-07-29T00:23:58;12.30;;;8.35;;
18405;SDS011;9329;48.720;9.588;2022-07-29T00:26:26;9.95;;;8.75;;
18405;SDS011;9329;48.720;9.588;2022-07-29T00:28:57;10.75;;;8.23;;
18405;SDS011;9329;48.720;9.588;2022-07-29T00:31:24;10.13;;;8.48;;
18405;SDS011;9329;48.720;9.588;2022-07-29T00:33:53;10.52;;;7.88;;
18405;SDS011;9329;48.720;9.588;2022-07-29T00:36:20;8.65;;;7.65;;
18405;SDS011;9329;48.720;9.588;2022-07-29T00:38:46;10.35;;;7.82;;
18405;SDS011;9329;48.720;9.588;2022-07-29T00:41:14;9.65;;;7.15;;
18405;SDS011;9329;48.720;9.588;2022-07-29T00:43:41;8.32;;;7.53;;
18405;SDS011;9329;48.720;9.588;2022-07-29T00:46:08;8.77;;;7.47;;
18405;SDS011;9329;48.720;9.588;2022-07-29T00:48:35;9.88;;;8.10;;
18405;SDS011;9329;48.720;9.588;2022-07-29T00:51:05;11.75;;;7.95;;
18405;SDS011;9329;48.720;9.588;2022-07-29T00:53:35;10.77;;;8.00;;
18405;SDS011;9329;48.720;9.588;2022-07-29T00:56:02;10.90;;;8.75;;
18405;SDS011;9329;48.720;9.588;2022-07-29T00:58:30;10.57;;;7.25;;
18405;SDS011;9329;48.720;9.588;2022-07-29T01:00:58;9.73;;;6.90;;
18405;SDS011;9329;48.720;9.588;2022-07-29T01:03:25;10.18;;;7.00;;
18405;SDS011;9329;48.720;9.588;2022-07-29T01:05:52;10.50;;;7.25;;
18405;SDS011;9329;48.720;9.588;2022-07-29T01:08:21;11.27;;;7.50;;
18405;SDS011;9329;48.720;9.588;2022-07-29T01:10:49;9.65;;;7.00;;
18405;SDS011;9329;48.720;9.588;2022-07-29T01:13:18;10.23;;;7.03;;
18405;SDS011;9329;48.720;9.588;2022-07-29T01:15:47;8.23;;;6.40;;
18405;SDS011;9329;48.720;9.588;2022-07-29T01:18:21;8.57;;;7.00;;
18405;SDS011;9329;48.720;9.588;2022-07-29T01:21:05;9.77;;;7.60;;
18405;SDS011;9329;48.720;9.588;2022-07-29T01:26:41;9.73;;;6.57;;
18405;SDS011;9329;48.720;9.588;2022-07-29T01:29:14;7.55;;;6.78;;
18405;SDS011;9329;48.720;9.588;2022-07-29T01:31:47;9.02;;;7.80;;
18405;SDS011;9329;48.720;9.588;2022-07-29T01:34:18;10.68;;;7.30;;
18405;SDS011;9329;48.720;9.588;2022-07-29T01:36:59;11.48;;;8.05;;
18405;SDS011;9329;48.720;9.588;2022-07-29T01:39:32;10.90;;;8.27;;
18405;SDS011;9329;48.720;9.588;2022-07-29T01:42:06;10.55;;;8.43;;
18405;SDS011;9329;48.720;9.588;2022-07-29T01:44:41;10.23;;;9.05;;
18405;SDS011;9329;48.720;9.588;2022-07-29T01:47:15;9.50;;;8.52;;
18405;SDS011;9329;48.720;9.588;2022-07-29T01:49:46;10.63;;;7.80;;
18405;SDS011;9329;48.720;9.588;2022-07-29T01:52:19;8.85;;;7.47;;
18405;SDS011;9329;48.720;9.588;2022-07-29T01:54:51;11.27;;;7.87;;
18405;SDS011;9329;48.720;9.588;2022-07-29T01:57:25;9.93;;;7.43;;
18405;SDS011;9329;48.720;9.588;2022-07-29T01:59:55;7.68;;;6.40;;
18405;SDS011;9329;48.720;9.588;2022-07-29T02:02:23;10.43;;;7.33;;
18405;SDS011;9329;48.720;9.588;2022-07-29T02:04:52;10.38;;;7.72;;
18405;SDS011;9329;48.720;9.588;2022-07-29T02:07:21;8.00;;;6.43;;
18405;SDS011;9329;48.720;9.588;2022-07-29T02:09:49;8.77;;;6.95;;
18405;SDS011;9329;48.720;9.588;2022-07-29T02:12:18;9.82;;;7.50;;
18405;SDS011;9329;48.720;9.588;2022-07-29T02:14:47;11.32;;;7.10;;
18405;SDS011;9329;48.720;9.588;2022-07-29T02:17:19;10.15;;;6.97;;
18405;SDS011;9329;48.720;9.588;2022-07-29T02:19:50;9.52;;;7.22;;
18405;SDS011;9329;48.720;9.588;2022-07-29T02:22:19;7.95;;;7.10;;
18405;SDS011;9329;48.720;9.588;2022-07-29T02:24:48;9.30;;;7.80;;
18405;SDS011;9329;48.720;9.588;2022-07-29T02:27:17;10.23;;;7.93;;
18405;SDS011;9329;48.720;9.588;2022-07-29T02:29:46;11.13;;;7.93;;
18405;SDS011;9329;48.720;9.588;2022-07-29T02:32:15;9.88;;;6.97;;
18405;SDS011;9329;48.720;9.588;2022-07-29T02:34:44;9.80;;;6.63;;
18405;SDS011;9329;48.720;9.588;2022-07-29T02:37:13;9.07;;;7.20;;
18405;SDS011;9329;48.720;9.588;2022-07-29T02:39:43;11.57;;;8.05;;
18405;SDS011;9329;48.720;9.588;2022-07-29T02:42:14;10.73;;;8.00;;
18405;SDS011;9329;48.720;9.588;2022-07-29T02:44:42;9.18;;;8.05;;
18405;SDS011;9329;48.720;9.588;2022-07-29T02:47:11;11.48;;;8.75;;
18405;SDS011;9329;48.720;9.588;2022-07-29T02:49:47;10.15;;;8.13;;
18405;SDS011;9329;48.720;9.588;2022-07-29T02:52:24;8.43;;;7.63;;
18405;SDS011;9329;48.720;9.588;2022-07-29T02:54:55;8.57;;;7.22;;
18405;SDS011;9329;48.720;9.588;2022-07-29T02:57:28;10.43;;;8.10;;
18405;SDS011;9329;48.720;9.588;2022-07-29T03:00:01;11.15;;;7.57;;
18405;SDS011;9329;48.720;9.588;2022-07-29T03:02:31;9.43;;;8.05;;
18405;SDS011;9329;48.720;9.588;2022-07-29T03:05:03;9.50;;;8.48;;
18405;SDS011;9329;48.720;9.588;2022-07-29T03:07:33;8.13;;;7.30;;
18405;SDS011;9329;48.720;9.588;2022-07-29T03:10:01;12.40;;;7.90;;
18405;SDS011;9329;48.720;9.588;2022-07-29T03:12:29;11.40;;;8.20;;
18405;SDS011;9329;48.720;9.588;2022-07-29T03:14:57;12.02;;;7.97;;
18405;SDS011;9329;48.720;9.588;2022-07-29T03:17:26;9.77;;;7.97;;
18405;SDS011;9329;48.720;9.588;2022-07-29T03:19:54;11.00;;;7.20;;
18405;SDS011;9329;48.720;9.588;2022-07-29T03:22:23;10.07;;;6.77;;
18405;SDS011;9329;48.720;9.588;2022-07-29T03:24:50;9.87;;;7.23;;
18405;SDS011;9329;48.720;9.588;2022-07-29T03:27:17;10.63;;;7.50;;
18405;SDS011;9329;48.720;9.588;2022-07-29T03:29:44;9.80;;;7.10;;
18405;SDS011;9329;48.720;9.588;2022-07-29T03:32:11;10.40;;;6.80;;
18405;SDS011;9329;48.720;9.588;2022-07-29T03:34:38;12.10;;;7.90;;
18405;SDS011;9329;48.720;9.588;2022-07-29T03:37:06;8.20;;;7.40;;
18405;SDS011;9329;48.720;9.588;2022-07-29T03:39:35;11.70;;;7.47;;
18405;SDS011;9329;48.720;9.588;2022-07-29T03:42:06;10.23;;;8.00;;
18405;SDS011;9329;48.720;9.588;2022-07-29T03:44:36;9.93;;;7.72;;
18405;SDS011;9329;48.720;9.588;2022-07-29T03:47:05;11.63;;;7.68;;
18405;SDS011;9329;48.720;9.588;2022-07-29T03:49:34;9.45;;;7.80;;
18405;SDS011;9329;48.720;9.588;2022-07-29T03:52:04;10.55;;;7.72;;
18405;SDS011;9329;48.720;9.588;2022-07-29T03:54:31;11.10;;;8.20;;
18405;SDS011;9329;48.720;9.588;2022-07-29T03:57:00;8.93;;;8.02;;
18405;SDS011;9329;48.720;9.588;2022-07-29T03:59:30;9.07;;;8.07;;
18405;SDS011;9329;48.720;9.588;2022-07-29T04:01:59;9.95;;;8.18;;
18405;SDS011;9329;48.720;9.588;2022-07-29T04:04:28;9.05;;;7.70;;
18405;SDS011;9329;48.720;9.588;2022-07-29T04:06:58;9.83;;;8.80;;
18405;SDS011;9329;48.720;9.588;2022-07-29T04:09:25;9.20;;;8.30;;
18405;SDS011;9329;48.720;9.588;2022-07-29T04:11:52;9.63;;;7.87;;
18405;SDS011;9329;48.720;9.588;2022-07-29T04:14:21;11.20;;;8.60;;
18405;SDS011;9329;48.720;9.588;2022-07-29T04:16:48;9.40;;;8.03;;
18405;SDS011;9329;48.720;9.588;2022-07-29T04:19:15;9.30;;;7.73;;
18405;SDS011;9329;48.720;9.588;2022-07-29T04:21:42;11.70;;;7.07;;
18405;SDS011;9329;48.720;9.588;2022-07-29T04:24:10;9.70;;;7.72;;
18405;SDS011;9329;48.720;9.588;2022-07-29T04:26:37;8.43;;;7.55;;
18405;SDS011;9329;48.720;9.588;2022-07-29T04:29:04;10.80;;;7.13;;
18405;SDS011;9329;48.720;9.588;2022-07-29T04:31:32;10.00;;;7.18;;
18405;SDS011;9329;48.720;9.588;2022-07-29T04:33:59;8.60;;;7.47;;
18405;SDS011;9329;48.720;9.588;2022-07-29T04:36:26;10.15;;;6.97;;
18405;SDS011;9329;48.720;9.588;2022-07-29T04:38:53;8.68;;;7.13;;
18405;SDS011;9329;48.720;9.588;2022-07-29T04:41:20;10.20;;;6.80;;
18405;SDS011;9329;48.720;9.588;2022-07-29T04:43:47;7.63;;;6.60;;
18405;SDS011;9329;48.720;9.588;2022-07-29T04:46:15;8.70;;;6.40;;
18405;SDS011;9329;48.720;9.588;2022-07-29T04:48:43;9.07;;;6.80;;
18405;SDS011;9329;48.720;9.588;2022-07-29T04:51:11;10.18;;;7.38;;
18405;SDS011;9329;48.720;9.588;2022-07-29T04:53:38;8.90;;;6.88;;
18405;SDS011;9329;48.720;9.588;2022-07-29T04:56:05;9.20;;;7.68;;
18405;SDS011;9329;48.720;9.588;2022-07-29T04:58:33;11.27;;;7.00;;
18405;SDS011;9329;48.720;9.588;2022-07-29T05:01:01;7.85;;;7.03;;
18405;SDS011;9329;48.720;9.588;2022-07-29T05:03:28;9.10;;;7.03;;
18405;SDS011;9329;48.720;9.588;2022-07-29T05:05:57;10.00;;;7.05;;
18405;SDS011;9329;48.720;9.588;2022-07-29T05:08:25;7.05;;;6.35;;
18405;SDS011;9329;48.720;9.588;2022-07-29T05:10:52;6.95;;;6.25;;
18405;SDS011;9329;48.720;9.588;2022-07-29T05:13:19;10.47;;;6.93;;
18405;SDS011;9329;48.720;9.588;2022-07-29T05:15:47;7.67;;;6.40;;
18405;SDS011;9329;48.720;9.588;2022-07-29T05:18:14;8.98;;;6.57;;
18405;SDS011;9329;48.720;9.588;2022-07-29T05:20:41;8.27;;;5.90;;
18405;SDS011;9329;48.720;9.588;2022-07-29T05:23:10;10.43;;;6.63;;
18405;SDS011;9329;48.720;9.588;2022-07-29T05:25:39;8.77;;;6.63;;
18405;SDS011;9329;48.720;9.588;2022-07-29T05:28:07;9.00;;;7.10;;
18405;SDS011;9329;48.720;9.588;2022-07-29T05:30:34;9.68;;;7.40;;
18405;SDS011;9329;48.720;9.588;2022-07-29T05:33:01;11.98;;;7.35;;
18405;SDS011;9329;48.720;9.588;2022-07-29T05:35:28;8.90;;;7.25;;
18405;SDS011;9329;48.720;9.588;2022-07-29T05:37:55;9.35;;;7.63;;
18405;SDS011;9329;48.720;9.588;2022-07-29T05:40:23;10.40;;;7.23;;
18405;SDS011;9329;48.720;9.588;2022-07-29T05:42:51;14.33;;;7.93;;
18405;SDS011;9329;48.720;9.588;2022-07-29T05:45:18;9.87;;;7.63;;
18405;SDS011;9329;48.720;9.588;2022-07-29T05:47:45;7.97;;;6.90;;
18405;SDS011;9329;48.720;9.588;2022-07-29T05:50:12;9.13;;;6.90;;
18405;SDS011;9329;48.720;9.588;2022-07-29T05:52:39;8.07;;;6.60;;
18405;SDS011;9329;48.720;9.588;2022-07-29T05:55:06;8.07;;;6.23;;
18405;SDS011;9329;48.720;9.588;2022-07-29T05:57:35;7.90;;;6.10;;
18405;SDS011;9329;48.720;9.588;2022-07-29T06:00:03;8.27;;;5.63;;
18405;SDS011;9329;48.720;9.588;2022-07-29T06:02:37;7.80;;;5.60;;
18405;SDS011;9329;48.720;9.588;2022-07-29T06:05:07;8.73;;;6.17;;
18405;SDS011;9329;48.720;9.588;2022-07-29T06:07:34;9.10;;;6.20;;
18405;SDS011;9329;48.720;9.588;2022-07-29T06:10:02;9.43;;;6.40;;
18405;SDS011;9329;48.720;9.588;2022-07-29T06:12:29;12.40;;;6.53;;
18405;SDS011;9329;48.720;9.588;2022-07-29T06:14:58;9.57;;;6.03;;
18405;SDS011;9329;48.720;9.588;2022-07-29T06:17:25;11.00;;;6.23;;
18405;SDS011;9329;48.720;9.588;2022-07-29T06:19:52;8.77;;;5.67;;
18405;SDS011;9329;48.720;9.588;2022-07-29T06:22:19;7.97;;;5.80;;
18405;SDS011;9329;48.720;9.588;2022-07-29T06:24:46;9.57;;;6.67;;
18405;SDS011;9329;48.720;9.588;2022-07-29T06:27:13;8.70;;;5.77;;
18405;SDS011;9329;48.720;9.588;2022-07-29T06:29:41;12.63;;;6.30;;
18405;SDS011;9329;48.720;9.588;2022-07-29T06:32:09;13.90;;;6.10;;
18405;SDS011;9329;48.720;9.588;2022-07-29T06:34:36;12.10;;;6.80;;
18405;SDS011;9329;48.720;9.588;2022-07-29T06:37:07;10.47;;;6.97;;
18405;SDS011;9329;48.720;9.588;2022-07-29T06:39:34;10.27;;;6.90;;
18405;SDS011;9329;48.720;9.588;2022-07-29T06:42:03;11.83;;;7.00;;
18405;SDS011;9329;48.720;9.588;2022-07-29T06:44:30;11.20;;;7.33;;
18405;SDS011;9329;48.720;9.588;2022-07-29T06:46:59;10.03;;;7.00;;
18405;SDS011;9329;48.720;9.588;2022-07-29T06:49:27;10.57;;;6.93;;
18405;SDS011;9329;48.720;9.588;2022-07-29T06:51:54;9.10;;;6.60;;
18405;SDS011;9329;48.720;9.588;2022-07-29T06:54:22;8.60;;;6.20;;
18405;SDS011;9329;48.720;9.588;2022-07-29T06:56:49;9.50;;;6.57;;
18405;SDS011;9329;48.720;9.588;2022-07-29T06:59:16;8.70;;;6.67;;
18405;SDS011;9329;48.720;9.588;2022-07-29T07:01:43;9.53;;;6.63;;
18405;SDS011;9329;48.720;9.588;2022-07-29T07:04:11;9.80;;;7.15;;
18405;SDS011;9329;48.720;9.588;2022-07-29T07:06:40;11.03;;;7.13;;
18405;SDS011;9329;48.720;9.588;2022-07-29T07:09:07;11.67;;;7.20;;
18405;SDS011;9329;48.720;9.588;2022-07-29T07:11:34;11.10;;;6.80;;
18405;SDS011;9329;48.720;9.588;2022-07-29T07:14:02;9.77;;;6.17;;
18405;SDS011;9329;48.720;9.588;2022-07-29T07:16:29;7.82;;;6.13;;
18405;SDS011;9329;48.720;9.588;2022-07-29T07:18:56;8.35;;;5.70;;
18405;SDS011;9329;48.720;9.588;2022-07-29T07:21:23;7.90;;;5.80;;
18405;SDS011;9329;48.720;9.588;2022-07-29T07:23:52;8.30;;;5.15;;
18405;SDS011;9329;48.720;9.588;2022-07-29T07:26:19;8.75;;;5.35;;
18405;SDS011;9329;48.720;9.588;2022-07-29T07:28:46;8.30;;;4.97;;
18405;SDS011;9329;48.720;9.588;2022-07-29T07:31:13;7.65;;;4.30;;
18405;SDS011;9329;48.720;9.588;2022-07-29T07:33:40;9.02;;;4.15;;
18405;SDS011;9329;48.720;9.588;2022-07-29T07:36:07;6.13;;;3.75;;
18405;SDS011;9329;48.720;9.588;2022-07-29T07:38:34;6.53;;;3.60;;
18405;SDS011;9329;48.720;9.588;2022-07-29T07:41:03;7.60;;;3.38;;
18405;SDS011;9329;48.720;9.588;2022-07-29T07:43:30;4.43;;;2.90;;
18405;SDS011;9329;48.720;9.588;2022-07-29T07:45:57;4.10;;;3.10;;
18405;SDS011;9329;48.720;9.588;2022-07-29T07:48:24;5.97;;;3.10;;
18405;SDS011;9329;48.720;9.588;2022-07-29T07:50:51;4.40;;;2.67;;
18405;SDS011;9329;48.720;9.588;2022-07-29T07:53:19;4.32;;;2.85;;
18405;SDS011;9329;48.720;9.588;2022-07-29T07:55:46;6.65;;;2.88;;
18405;SDS011;9329;48.720;9.588;2022-07-29T08:23:06;5.05;;;2.88;;
18405;SDS011;9329;48.720;9.588;2022-07-29T08:25:35;4.75;;;2.97;;
18405;SDS011;9329;48.720;9.588;2022-07-29T08:28:03;4.45;;;3.00;;
18405;SDS011;9329;48.720;9.588;2022-07-29T08:30:32;5.18;;;2.90;;
18405;SDS011;9329;48.720;9.588;2022-07-29T08:32:59;4.15;;;3.10;;
18405;SDS011;9329;48.720;9.588;2022-07-29T08:35:26;6.00;;;3.10;;
18405;SDS011;9329;48.720;9.588;2022-07-29T08:37:54;4.90;;;3.47;;
18405;SDS011;9329;48.720;9.588;2022-07-29T08:40:22;6.18;;;3.20;;
18405;SDS011;9329;48.720;9.588;2022-07-29T08:42:49;6.32;;;3.10;;
18405;SDS011;9329;48.720;9.588;2022-07-29T08:45:17;5.15;;;3.50;;
18405;SDS011;9329;48.720;9.588;2022-07-29T08:47:45;10.18;;;6.07;;
18405;SDS011;9329;48.720;9.588;2022-07-29T08:50:12;5.65;;;3.88;;
18405;SDS011;9329;48.720;9.588;2022-07-29T08:52:40;4.60;;;3.30;;
18405;SDS011;9329;48.720;9.588;2022-07-29T08:55:08;4.18;;;3.55;;
18405;SDS011;9329;48.720;9.588;2022-07-29T08:57:37;7.53;;;3.90;;
18405;SDS011;9329;48.720;9.588;2022-07-29T09:00:06;7.43;;;3.80;;
18405;SDS011;9329;48.720;9.588;2022-07-29T09:02:39;9.90;;;4.40;;
18405;SDS011;9329;48.720;9.588;2022-07-29T09:05:09;5.97;;;3.72;;
18405;SDS011;9329;48.720;9.588;2022-07-29T09:07:37;7.55;;;4.15;;
18405;SDS011;9329;48.720;9.588;2022-07-29T09:10:07;8.30;;;4.13;;
18405;SDS011;9329;48.720;9.588;2022-07-29T09:12:35;4.88;;;4.00;;
18405;SDS011;9329;48.720;9.588;2022-07-29T09:15:03;7.03;;;4.45;;
18405;SDS011;9329;48.720;9.588;2022-07-29T09:17:40;9.43;;;5.38;;
18405;SDS011;9329;48.720;9.588;2022-07-29T09:20:10;8.40;;;4.15;;
18405;SDS011;9329;48.720;9.588;2022-07-29T09:22:38;6.45;;;4.10;;
18405;SDS011;9329;48.720;9.588;2022-07-29T09:25:05;6.15;;;3.80;;
18405;SDS011;9329;48.720;9.588;2022-07-29T09:27:33;7.95;;;3.80;;
18405;SDS011;9329;48.720;9.588;2022-07-29T09:30:02;6.45;;;4.57;;
18405;SDS011;9329;48.720;9.588;2022-07-29T09:32:31;7.97;;;3.55;;
18405;SDS011;9329;48.720;9.588;2022-07-29T09:35:15;6.72;;;4.00;;
18405;SDS011;9329;48.720;9.588;2022-07-29T09:37:46;5.35;;;3.60;;
18405;SDS011;9329;48.720;9.588;2022-07-29T09:40:15;7.72;;;4.03;;
18405;SDS011;9329;48.720;9.588;2022-07-29T09:42:43;4.63;;;3.25;;
18405;SDS011;9329;48.720;9.588;2022-07-29T09:45:11;5.90;;;3.60;;
18405;SDS011;9329;48.720;9.588;2022-07-29T09:47:42;6.05;;;3.20;;
18405;SDS011;9329;48.720;9.588;2022-07-29T09:50:15;6.65;;;3.53;;
18405;SDS011;9329;48.720;9.588;2022-07-29T09:52:45;7.75;;;3.63;;
18405;SDS011;9329;48.720;9.588;2022-07-29T09:55:13;5.20;;;3.40;;
18405;SDS011;9329;48.720;9.588;2022-07-29T09:57:41;7.65;;;3.40;;
18405;SDS011;9329;48.720;9.588;2022-07-29T10:00:14;5.47;;;3.40;;
18405;SDS011;9329;48.720;9.588;2022-07-29T10:02:53;6.95;;;3.22;;
18405;SDS011;9329;48.720;9.588;2022-07-29T10:05:29;7.43;;;3.25;;
18405;SDS011;9329;48.720;9.588;2022-07-29T10:07:56;4.93;;;3.42;;
18405;SDS011;9329;48.720;9.588;2022-07-29T10:10:24;5.75;;;3.25;;
18405;SDS011;9329;48.720;9.588;2022-07-29T10:12:53;5.50;;;3.58;;
18405;SDS011;9329;48.720;9.588;2022-07-29T10:15:22;4.05;;;3.20;;
18405;SDS011;9329;48.720;9.588;2022-07-29T10:17:50;4.95;;;3.40;;
18405;SDS011;9329;48.720;9.588;2022-07-29T10:20:18;4.78;;;3.38;;
18405;SDS011;9329;48.720;9.588;2022-07-29T10:22:47;5.70;;;3.33;;
18405;SDS011;9329;48.720;9.588;2022-07-29T10:25:16;6.95;;;3.55;;
18405;SDS011;9329;48.720;9.588;2022-07-29T10:27:43;5.55;;;3.30;;
18405;SDS011;9329;48.720;9.588;2022-07-29T10:30:11;5.93;;;3.20;;
18405;SDS011;9329;48.720;9.588;2022-07-29T10:32:45;6.20;;;3.55;;
18405;SDS011;9329;48.720;9.588;2022-07-29T11:01:51;7.10;;;3.65;;
18405;SDS011;9329;48.720;9.588;2022-07-29T11:07:22;6.07;;;3.45;;
18405;SDS011;9329;48.720;9.588;2022-07-29T11:12:58;7.00;;;3.20;;
18405;SDS011;9329;48.720;9.588;2022-07-29T11:15:25;6.85;;;3.42;;
18405;SDS011;9329;48.720;9.588;2022-07-29T11:18:07;4.38;;;3.40;;
18405;SDS011;9329;48.720;9.588;2022-07-29T11:20:39;4.78;;;3.67;;
18405;SDS011;9329;48.720;9.588;2022-07-29T11:26:13;12.27;;;3.70;;
18405;SDS011;9329;48.720;9.588;2022-07-29T11:28:53;4.65;;;3.30;;
18405;SDS011;9329;48.720;9.588;2022-07-29T11:31:32;6.63;;;3.40;;
18405;SDS011;9329;48.720;9.588;2022-07-29T11:34:17;6.97;;;3.50;;
18405;SDS011;9329;48.720;9.588;2022-07-29T11:39:45;6.25;;;3.58;;
18405;SDS011;9329;48.720;9.588;2022-07-29T11:45:10;5.30;;;3.53;;
18405;SDS011;9329;48.720;9.588;2022-07-29T11:47:46;5.43;;;3.60;;
18405;SDS011;9329;48.720;9.588;2022-07-29T11:50:16;5.22;;;3.47;;
18405;SDS011;9329;48.720;9.588;2022-07-29T11:52:52;5.47;;;3.83;;
18405;SDS011;9329;48.720;9.588;2022-07-29T11:55:20;6.78;;;3.60;;
18405;SDS011;9329;48.720;9.588;2022-07-29T11:57:50;8.85;;;4.00;;
18405;SDS011;9329;48.720;9.588;2022-07-29T12:00:24;7.88;;;3.80;;
18405;SDS011;9329;48.720;9.588;2022-07-29T12:02:53;8.02;;;3.42;;
18405;SDS011;9329;48.720;9.588;2022-07-29T12:05:29;7.47;;;3.30;;
18405;SDS011;9329;48.720;9.588;2022-07-29T12:10:35;9.73;;;3.53;;
18405;SDS011;9329;48.720;9.588;2022-07-29T12:13:02;8.27;;;3.67;;
18405;SDS011;9329;48.720;9.588;2022-07-29T12:15:32;8.90;;;3.28;;
18405;SDS011;9329;48.720;9.588;2022-07-29T12:18:09;7.15;;;3.67;;
18405;SDS011;9329;48.720;9.588;2022-07-29T12:20:37;8.25;;;3.80;;
18405;SDS011;9329;48.720;9.588;2022-07-29T12:23:05;10.93;;;3.72;;
18405;SDS011;9329;48.720;9.588;2022-07-29T12:25:34;8.48;;;3.80;;
18405;SDS011;9329;48.720;9.588;2022-07-29T12:28:03;10.82;;;4.07;;
18405;SDS011;9329;48.720;9.588;2022-07-29T12:33:19;6.88;;;4.00;;
18405;SDS011;9329;48.720;9.588;2022-07-29T12:35:49;8.30;;;3.85;;
18405;SDS011;9329;48.720;9.588;2022-07-29T12:38:18;8.00;;;3.67;;
18405;SDS011;9329;48.720;9.588;2022-07-29T12:40:46;4.47;;;3.10;;
18405;SDS011;9329;48.720;9.588;2022-07-29T12:43:16;4.93;;;3.00;;
18405;SDS011;9329;48.720;9.588;2022-07-29T12:45:45;4.38;;;2.92;;
18405;SDS011;9329;48.720;9.588;2022-07-29T12:48:17;5.95;;;2.72;;
18405;SDS011;9329;48.720;9.588;2022-07-29T12:50:59;8.18;;;2.85;;
18405;SDS011;9329;48.720;9.588;2022-07-29T13:06:07;4.82;;;2.72;;
18405;SDS011;9329;48.720;9.588;2022-07-29T13:09:01;5.07;;;2.75;;
18405;SDS011;9329;48.720;9.588;2022-07-29T13:11:31;5.63;;;2.72;;
18405;SDS011;9329;48.720;9.588;2022-07-29T13:13:58;5.13;;;2.75;;
18405;SDS011;9329;48.720;9.588;2022-07-29T13:16:25;4.13;;;2.53;;
18405;SDS011;9329;48.720;9.588;2022-07-29T13:19:07;10.82;;;2.67;;
18405;SDS011;9329;48.720;9.588;2022-07-29T13:21:36;3.28;;;2.67;;
18405;SDS011;9329;48.720;9.588;2022-07-29T13:24:05;3.58;;;2.20;;
18405;SDS011;9329;48.720;9.588;2022-07-29T13:26:33;4.40;;;2.55;;
18405;SDS011;9329;48.720;9.588;2022-07-29T13:29:00;3.45;;;1.90;;
18405;SDS011;9329;48.720;9.588;2022-07-29T13:31:27;3.58;;;2.10;;
18405;SDS011;9329;48.720;9.588;2022-07-29T13:33:54;4.20;;;2.40;;
18405;SDS011;9329;48.720;9.588;2022-07-29T13:36:23;5.32;;;2.20;;
18405;SDS011;9329;48.720;9.588;2022-07-29T13:38:51;4.88;;;2.20;;
18405;SDS011;9329;48.720;9.588;2022-07-29T13:41:19;3.45;;;2.20;;
18405;SDS011;9329;48.720;9.588;2022-07-29T13:43:46;5.50;;;2.33;;
18405;SDS011;9329;48.720;9.588;2022-07-29T13:46:13;5.45;;;2.58;;
18405;SDS011;9329;48.720;9.588;2022-07-29T13:48:40;4.15;;;2.50;;
18405;SDS011;9329;48.720;9.588;2022-07-29T13:51:07;6.10;;;2.50;;
18405;SDS011;9329;48.720;9.588;2022-07-29T13:53:35;4.43;;;2.42;;
18405;SDS011;9329;48.720;9.588;2022-07-29T13:56:03;3.50;;;2.42;;
18405;SDS011;9329;48.720;9.588;2022-07-29T13:58:32;5.07;;;2.50;;
18405;SDS011;9329;48.720;9.588;2022-07-29T14:00:59;4.60;;;2.23;;
18405;SDS011;9329;48.720;9.588;2022-07-29T14:03:27;5.43;;;2.58;;
18405;SDS011;9329;48.720;9.588;2022-07-29T14:05:54;3.80;;;2.42;;
18405;SDS011;9329;48.720;9.588;2022-07-29T14:08:21;4.93;;;2.97;;
18405;SDS011;9329;48.720;9.588;2022-07-29T14:10:50;4.40;;;2.60;;
18405;SDS011;9329;48.720;9.588;2022-07-29T14:13:17;4.57;;;3.00;;
18405;SDS011;9329;48.720;9.588;2022-07-29T14:15:44;4.80;;;2.60;;
18405;SDS011;9329;48.720;9.588;2022-07-29T14:18:11;5.20;;;2.63;;
18405;SDS011;9329;48.720;9.588;2022-07-29T14:20:38;4.60;;;2.80;;
18405;SDS011;9329;48.720;9.588;2022-07-29T14:23:05;4.20;;;2.70;;
18405;SDS011;9329;48.720;9.588;2022-07-29T14:25:32;4.55;;;2.80;;
18405;SDS011;9329;48.720;9.588;2022-07-29T14:28:01;4.57;;;2.93;;
18405;SDS011;9329;48.720;9.588;2022-07-29T14:30:28;4.40;;;2.70;;
18405;SDS011;9329;48.720;9.588;2022-07-29T14:32:55;3.03;;;2.50;;
18405;SDS011;9329;48.720;9.588;2022-07-29T14:35:22;4.88;;;2.70;;
18405;SDS011;9329;48.720;9.588;2022-07-29T14:37:49;5.20;;;2.80;;
18405;SDS011;9329;48.720;9.588;2022-07-29T14:40:16;4.88;;;2.90;;
18405;SDS011;9329;48.720;9.588;2022-07-29T14:42:43;4.22;;;2.85;;
18405;SDS011;9329;48.720;9.588;2022-07-29T14:45:12;4.17;;;2.87;;
18405;SDS011;9329;48.720;9.588;2022-07-29T14:47:39;4.30;;;3.17;;
18405;SDS011;9329;48.720;9.588;2022-07-29T14:50:06;5.57;;;3.50;;
18405;SDS011;9329;48.720;9.588;2022-07-29T14:52:34;5.97;;;3.30;;
18405;SDS011;9329;48.720;9.588;2022-07-29T14:55:02;6.07;;;3.35;;
18405;SDS011;9329;48.720;9.588;2022-07-29T14:57:29;6.38;;;3.35;;
18405;SDS011;9329;48.720;9.588;2022-07-29T14:59:56;4.68;;;3.00;;
18405;SDS011;9329;48.720;9.588;2022-07-29T15:02:25;3.47;;;3.17;;
18405;SDS011;9329;48.720;9.588;2022-07-29T15:04:52;5.88;;;3.10;;
18405;SDS011;9329;48.720;9.588;2022-07-29T15:07:19;4.80;;;3.40;;
18405;SDS011;9329;48.720;9.588;2022-07-29T15:09:46;5.20;;;3.80;;
18405;SDS011;9329;48.720;9.588;2022-07-29T15:12:13;7.20;;;3.67;;
18405;SDS011;9329;48.720;9.588;2022-07-29T15:14:40;4.93;;;3.60;;
18405;SDS011;9329;48.720;9.588;2022-07-29T15:17:07;5.68;;;3.63;;
18405;SDS011;9329;48.720;9.588;2022-07-29T15:19:36;5.80;;;3.78;;
18405;SDS011;9329;48.720;9.588;2022-07-29T15:22:03;6.35;;;3.83;;
18405;SDS011;9329;48.720;9.588;2022-07-29T15:24:31;5.10;;;3.40;;
18405;SDS011;9329;48.720;9.588;2022-07-29T15:26:58;5.03;;;3.33;;
18405;SDS011;9329;48.720;9.588;2022-07-29T15:29:25;4.13;;;3.35;;
18405;SDS011;9329;48.720;9.588;2022-07-29T15:31:52;5.97;;;3.53;;
18405;SDS011;9329;48.720;9.588;2022-07-29T15:34:19;5.45;;;3.70;;
18405;SDS011;9329;48.720;9.588;2022-07-29T15:36:50;5.82;;;3.60;;
18405;SDS011;9329;48.720;9.588;2022-07-29T15:39:17;5.03;;;3.65;;
18405;SDS011;9329;48.720;9.588;2022-07-29T15:41:44;6.07;;;4.10;;
18405;SDS011;9329;48.720;9.588;2022-07-29T15:44:11;6.50;;;3.80;;
18405;SDS011;9329;48.720;9.588;2022-07-29T15:46:39;5.13;;;3.60;;
18405;SDS011;9329;48.720;9.588;2022-07-29T15:49:23;5.67;;;3.50;;
18405;SDS011;9329;48.720;9.588;2022-07-29T15:51:57;6.20;;;4.07;;
18405;SDS011;9329;48.720;9.588;2022-07-29T15:54:25;5.63;;;3.67;;
18405;SDS011;9329;48.720;9.588;2022-07-29T15:56:52;5.22;;;3.60;;
18405;SDS011;9329;48.720;9.588;2022-07-29T15:59:19;7.07;;;3.88;;
18405;SDS011;9329;48.720;9.588;2022-07-29T16:01:47;5.05;;;3.40;;
18405;SDS011;9329;48.720;9.588;2022-07-29T16:04:15;6.37;;;3.67;;
18405;SDS011;9329;48.720;9.588;2022-07-29T16:06:42;4.65;;;3.30;;
18405;SDS011;9329;48.720;9.588;2022-07-29T16:09:11;5.65;;;3.55;;
18405;SDS011;9329;48.720;9.588;2022-07-29T16:11:39;4.50;;;3.30;;
18405;SDS011;9329;48.720;9.588;2022-07-29T16:14:07;5.30;;;3.40;;
18405;SDS011;9329;48.720;9.588;2022-07-29T16:16:35;4.80;;;3.60;;
18405;SDS011;9329;48.720;9.588;2022-07-29T16:19:02;5.43;;;3.50;;
18405;SDS011;9329;48.720;9.588;2022-07-29T16:21:30;4.43;;;3.38;;
18405;SDS011;9329;48.720;9.588;2022-07-29T16:23:59;6.50;;;3.80;;
18405;SDS011;9329;48.720;9.588;2022-07-29T16:26:28;4.60;;;3.50;;
18405;SDS011;9329;48.720;9.588;2022-07-29T16:28:56;5.47;;;3.70;;
18405;SDS011;9329;48.720;9.588;2022-07-29T16:31:24;4.95;;;3.40;;
18405;SDS011;9329;48.720;9.588;2022-07-29T16:33:51;4.90;;;3.50;;
18405;SDS011;9329;48.720;9.588;2022-07-29T16:36:18;4.97;;;3.60;;